sensor_id;sensor_type;location;lat;lon;timestamp;temperature;humidity
19385;DHT22;9828;54.122;17.974;2022-11-04T00:04:19;6.30;99.90
19385;DHT22;9828;54.122;17.974;2022-11-04T00:09:40;6.30;99.90
19385;DHT22;9828;54.122;17.974;2022-11-04T00:15:01;6.30;99.90
19385;DHT22;9828;54.122;17.974;2022-11-04T00:20:42;6.30;99.90
19385;DHT22;9828;54.122;17.974;2022-11-04T00:26:21;6.30;99.90
19385;DHT22;9828;54.122;17.974;2022-11-04T00:32:01;6.40;99.90
19385;DHT22;9828;54.122;17.974;2022-11-04T00:37:42;6.50;99.90
19385;DHT22;9828;54.122;17.974;2022-11-04T00:43:03;6.60;99.90
19385;DHT22;9828;54.122;17.974;2022-11-04T00:48:25;6.60;99.90
19385;DHT22;9828;54.122;17.974;2022-11-04T00:53:46;6.70;99.90
19385;DHT22;9828;54.122;17.974;2022-11-04T00:59:07;6.70;99.90
19385;DHT22;9828;54.122;17.974;2022-11-04T01:04:29;6.70;99.90
19385;DHT22;9828;54.122;17.974;2022-11-04T01:09:51;6.70;99.90
19385;DHT22;9828;54.122;17.974;2022-11-04T01:15:12;6.70;99.90
19385;DHT22;9828;54.122;17.974;2022-11-04T01:20:33;6.60;99.90
19385;DHT22;9828;54.122;17.974;2022-11-04T01:25:54;6.70;99.90
19385;DHT22;9828;54.122;17.974;2022-11-04T01:31:17;6.70;99.90
19385;DHT22;9828;54.122;17.974;2022-11-04T01:36:41;6.70;99.90
19385;DHT22;9828;54.122;17.974;2022-11-04T01:42:02;6.80;99.90
19385;DHT22;9828;54.122;17.974;2022-11-04T01:58:17;6.90;99.90
19385;DHT22;9828;54.122;17.974;2022-11-04T02:03:51;6.90;99.90
19385;DHT22;9828;54.122;17.974;2022-11-04T02:09:13;6.90;99.90
19385;DHT22;9828;54.122;17.974;2022-11-04T02:14:35;7.00;99.90
19385;DHT22;9828;54.122;17.974;2022-11-04T02:37:08;7.10;99.90
19385;DHT22;9828;54.122;17.974;2022-11-04T02:42:46;7.10;99.90
19385;DHT22;9828;54.122;17.974;2022-11-04T02:48:46;7.10;99.90
19385;DHT22;9828;54.122;17.974;2022-11-04T02:54:30;7.20;99.90
19385;DHT22;9828;54.122;17.974;2022-11-04T03:00:07;7.20;99.90
19385;DHT22;9828;54.122;17.974;2022-11-04T03:05:32;7.20;99.90
19385;DHT22;9828;54.122;17.974;2022-11-04T03:11:00;7.20;99.90
19385;DHT22;9828;54.122;17.974;2022-11-04T03:16:44;7.20;99.90
19385;DHT22;9828;54.122;17.974;2022-11-04T03:22:10;7.30;99.90
19385;DHT22;9828;54.122;17.974;2022-11-04T03:27:48;7.20;99.90
19385;DHT22;9828;54.122;17.974;2022-11-04T03:33:18;7.30;99.90
19385;DHT22;9828;54.122;17.974;2022-11-04T03:38:42;7.30;99.90
19385;DHT22;9828;54.122;17.974;2022-11-04T03:44:03;7.30;99.90
19385;DHT22;9828;54.122;17.974;2022-11-04T03:49:25;7.30;99.90
19385;DHT22;9828;54.122;17.974;2022-11-04T03:54:46;7.30;99.90
19385;DHT22;9828;54.122;17.974;2022-11-04T04:16:32;7.30;99.90
19385;DHT22;9828;54.122;17.974;2022-11-04T04:22:19;7.30;99.90
19385;DHT22;9828;54.122;17.974;2022-11-04T04:27:43;7.30;99.90
19385;DHT22;9828;54.122;17.974;2022-11-04T04:33:08;7.30;99.90
19385;DHT22;9828;54.122;17.974;2022-11-04T04:38:31;7.40;99.90
19385;DHT22;9828;54.122;17.974;2022-11-04T04:44:31;7.50;99.90
19385;DHT22;9828;54.122;17.974;2022-11-04T04:50:17;7.50;99.90
19385;DHT22;9828;54.122;17.974;2022-11-04T04:55:38;7.40;99.90
19385;DHT22;9828;54.122;17.974;2022-11-04T05:01:00;7.40;99.90
19385;DHT22;9828;54.122;17.974;2022-11-04T05:06:21;7.40;99.90
19385;DHT22;9828;54.122;17.974;2022-11-04T05:11:42;7.40;99.90
19385;DHT22;9828;54.122;17.974;2022-11-04T05:17:04;7.40;99.90
19385;DHT22;9828;54.122;17.974;2022-11-04T05:22:25;7.40;99.90
19385;DHT22;9828;54.122;17.974;2022-11-04T05:27:46;7.30;99.90
19385;DHT22;9828;54.122;17.974;2022-11-04T05:33:07;7.30;99.90
19385;DHT22;9828;54.122;17.974;2022-11-04T05:38:28;7.20;99.90
19385;DHT22;9828;54.122;17.974;2022-11-04T05:43:51;7.20;99.90
19385;DHT22;9828;54.122;17.974;2022-11-04T05:49:14;7.20;99.90
19385;DHT22;9828;54.122;17.974;2022-11-04T05:54:36;7.20;99.90
19385;DHT22;9828;54.122;17.974;2022-11-04T05:59:59;7.20;99.90
19385;DHT22;9828;54.122;17.974;2022-11-04T06:05:20;7.20;99.90
19385;DHT22;9828;54.122;17.974;2022-11-04T06:10:42;7.20;99.90
19385;DHT22;9828;54.122;17.974;2022-11-04T06:16:03;7.20;99.90
19385;DHT22;9828;54.122;17.974;2022-11-04T06:21:32;7.20;99.90
19385;DHT22;9828;54.122;17.974;2022-11-04T06:26:53;7.20;99.90
19385;DHT22;9828;54.122;17.974;2022-11-04T06:32:16;7.30;99.90
19385;DHT22;9828;54.122;17.974;2022-11-04T06:37:38;7.40;99.90
19385;DHT22;9828;54.122;17.974;2022-11-04T06:42:59;7.50;99.90
19385;DHT22;9828;54.122;17.974;2022-11-04T06:48:20;7.60;99.90
19385;DHT22;9828;54.122;17.974;2022-11-04T06:53:42;7.70;99.90
19385;DHT22;9828;54.122;17.974;2022-11-04T06:59:03;7.80;99.90
19385;DHT22;9828;54.122;17.974;2022-11-04T07:04:24;7.80;99.90
19385;DHT22;9828;54.122;17.974;2022-11-04T07:09:45;7.90;99.90
19385;DHT22;9828;54.122;17.974;2022-11-04T07:15:07;8.00;99.90
19385;DHT22;9828;54.122;17.974;2022-11-04T07:20:28;8.10;99.90
19385;DHT22;9828;54.122;17.974;2022-11-04T07:25:49;8.40;99.90
19385;DHT22;9828;54.122;17.974;2022-11-04T07:31:11;8.60;99.90
19385;DHT22;9828;54.122;17.974;2022-11-04T07:36:36;8.80;99.90
19385;DHT22;9828;54.122;17.974;2022-11-04T07:41:57;9.10;99.90
19385;DHT22;9828;54.122;17.974;2022-11-04T07:47:19;9.40;99.90
19385;DHT22;9828;54.122;17.974;2022-11-04T07:52:40;9.50;99.90
19385;DHT22;9828;54.122;17.974;2022-11-04T07:58:02;9.50;99.90
19385;DHT22;9828;54.122;17.974;2022-11-04T08:03:23;9.80;99.90
19385;DHT22;9828;54.122;17.974;2022-11-04T08:08:45;10.20;99.90
19385;DHT22;9828;54.122;17.974;2022-11-04T08:14:08;10.50;99.90
19385;DHT22;9828;54.122;17.974;2022-11-04T08:19:30;11.10;99.90
19385;DHT22;9828;54.122;17.974;2022-11-04T08:24:51;11.30;99.90
19385;DHT22;9828;54.122;17.974;2022-11-04T08:30:12;11.50;99.90
19385;DHT22;9828;54.122;17.974;2022-11-04T08:35:34;11.40;99.90
19385;DHT22;9828;54.122;17.974;2022-11-04T08:41:01;11.80;99.90
19385;DHT22;9828;54.122;17.974;2022-11-04T08:46:23;11.70;99.90
19385;DHT22;9828;54.122;17.974;2022-11-04T08:51:45;11.40;99.90
19385;DHT22;9828;54.122;17.974;2022-11-04T08:57:09;11.20;99.90
19385;DHT22;9828;54.122;17.974;2022-11-04T09:02:30;10.90;99.90
19385;DHT22;9828;54.122;17.974;2022-11-04T09:07:52;10.70;99.90
19385;DHT22;9828;54.122;17.974;2022-11-04T09:13:14;10.70;99.90
19385;DHT22;9828;54.122;17.974;2022-11-04T09:18:36;10.80;99.90
19385;DHT22;9828;54.122;17.974;2022-11-04T09:23:58;10.60;99.90
19385;DHT22;9828;54.122;17.974;2022-11-04T09:29:19;10.50;99.90
19385;DHT22;9828;54.122;17.974;2022-11-04T09:34:40;10.60;99.90
19385;DHT22;9828;54.122;17.974;2022-11-04T09:40:01;10.70;99.90
19385;DHT22;9828;54.122;17.974;2022-11-04T09:45:32;10.80;99.90
19385;DHT22;9828;54.122;17.974;2022-11-04T09:50:57;10.80;99.90
19385;DHT22;9828;54.122;17.974;2022-11-04T09:56:27;10.80;99.90
19385;DHT22;9828;54.122;17.974;2022-11-04T10:13:20;10.70;99.90
19385;DHT22;9828;54.122;17.974;2022-11-04T10:19:00;10.50;99.90
19385;DHT22;9828;54.122;17.974;2022-11-04T10:24:45;10.40;99.90
19385;DHT22;9828;54.122;17.974;2022-11-04T10:30:21;10.40;99.90
19385;DHT22;9828;54.122;17.974;2022-11-04T10:35:55;10.20;99.90
19385;DHT22;9828;54.122;17.974;2022-11-04T10:41:37;10.20;99.90
19385;DHT22;9828;54.122;17.974;2022-11-04T10:47:17;10.20;99.90
19385;DHT22;9828;54.122;17.974;2022-11-04T10:52:42;10.20;99.90
19385;DHT22;9828;54.122;17.974;2022-11-04T10:58:16;10.20;99.90
19385;DHT22;9828;54.122;17.974;2022-11-04T11:03:38;10.20;99.90
19385;DHT22;9828;54.122;17.974;2022-11-04T11:09:24;10.10;99.90
19385;DHT22;9828;54.122;17.974;2022-11-04T11:14:49;10.10;99.90
19385;DHT22;9828;54.122;17.974;2022-11-04T11:25:40;10.30;99.90
19385;DHT22;9828;54.122;17.974;2022-11-04T11:31:11;10.30;99.90
19385;DHT22;9828;54.122;17.974;2022-11-04T11:36:37;10.40;99.90
19385;DHT22;9828;54.122;17.974;2022-11-04T11:52:49;12.50;99.90
19385;DHT22;9828;54.122;17.974;2022-11-04T11:58:21;12.00;99.90
19385;DHT22;9828;54.122;17.974;2022-11-04T12:04:05;11.80;99.90
19385;DHT22;9828;54.122;17.974;2022-11-04T12:21:25;11.70;99.90
19385;DHT22;9828;54.122;17.974;2022-11-04T12:38:02;11.40;99.90
19385;DHT22;9828;54.122;17.974;2022-11-04T12:49:18;11.30;99.90
19385;DHT22;9828;54.122;17.974;2022-11-04T13:00:28;11.10;99.90
19385;DHT22;9828;54.122;17.974;2022-11-04T13:06:18;11.00;99.90
19385;DHT22;9828;54.122;17.974;2022-11-04T13:12:04;11.00;99.90
19385;DHT22;9828;54.122;17.974;2022-11-04T13:17:30;10.90;99.90
19385;DHT22;9828;54.122;17.974;2022-11-04T13:22:53;10.90;99.90
19385;DHT22;9828;54.122;17.974;2022-11-04T13:28:23;10.80;99.90
19385;DHT22;9828;54.122;17.974;2022-11-04T13:39:32;10.70;99.90
19385;DHT22;9828;54.122;17.974;2022-11-04T13:44:56;10.70;99.90
19385;DHT22;9828;54.122;17.974;2022-11-04T13:50:38;10.60;99.90
19385;DHT22;9828;54.122;17.974;2022-11-04T13:56:00;10.40;99.90
19385;DHT22;9828;54.122;17.974;2022-11-04T14:01:40;10.30;99.90
19385;DHT22;9828;54.122;17.974;2022-11-04T14:07:02;10.20;99.90
19385;DHT22;9828;54.122;17.974;2022-11-04T14:12:30;10.10;99.90
19385;DHT22;9828;54.122;17.974;2022-11-04T14:23:21;9.90;99.90
19385;DHT22;9828;54.122;17.974;2022-11-04T14:28:49;9.90;99.90
19385;DHT22;9828;54.122;17.974;2022-11-04T14:34:30;9.90;99.90
19385;DHT22;9828;54.122;17.974;2022-11-04T14:39:58;9.80;99.90
19385;DHT22;9828;54.122;17.974;2022-11-04T14:45:36;9.80;99.90
19385;DHT22;9828;54.122;17.974;2022-11-04T14:50:58;9.70;99.90
19385;DHT22;9828;54.122;17.974;2022-11-04T14:56:21;9.60;99.90
19385;DHT22;9828;54.122;17.974;2022-11-04T15:01:44;9.60;99.90
19385;DHT22;9828;54.122;17.974;2022-11-04T15:07:05;9.60;99.90
19385;DHT22;9828;54.122;17.974;2022-11-04T15:12:28;9.50;99.90
19385;DHT22;9828;54.122;17.974;2022-11-04T15:18:14;9.50;99.90
19385;DHT22;9828;54.122;17.974;2022-11-04T15:23:50;9.50;99.90
19385;DHT22;9828;54.122;17.974;2022-11-04T15:29:13;9.40;99.90
19385;DHT22;9828;54.122;17.974;2022-11-04T15:34:36;9.30;99.90
19385;DHT22;9828;54.122;17.974;2022-11-04T15:39:59;9.40;99.90
19385;DHT22;9828;54.122;17.974;2022-11-04T15:56:43;9.30;99.90
19385;DHT22;9828;54.122;17.974;2022-11-04T16:07:49;9.30;99.90
19385;DHT22;9828;54.122;17.974;2022-11-04T16:18:38;9.30;99.90
19385;DHT22;9828;54.122;17.974;2022-11-04T16:24:28;9.30;99.90
19385;DHT22;9828;54.122;17.974;2022-11-04T16:35:26;9.30;99.90
19385;DHT22;9828;54.122;17.974;2022-11-04T16:40:49;9.30;99.90
19385;DHT22;9828;54.122;17.974;2022-11-04T16:46:10;9.30;99.90
19385;DHT22;9828;54.122;17.974;2022-11-04T16:51:32;9.30;99.90
19385;DHT22;9828;54.122;17.974;2022-11-04T16:56:54;9.40;99.90
19385;DHT22;9828;54.122;17.974;2022-11-04T17:07:48;9.40;99.90
19385;DHT22;9828;54.122;17.974;2022-11-04T17:13:14;9.40;99.90
19385;DHT22;9828;54.122;17.974;2022-11-04T17:18:35;9.30;99.90
19385;DHT22;9828;54.122;17.974;2022-11-04T17:23:57;9.40;99.90
19385;DHT22;9828;54.122;17.974;2022-11-04T17:29:18;9.40;99.90
19385;DHT22;9828;54.122;17.974;2022-11-04T17:34:39;9.40;99.90
19385;DHT22;9828;54.122;17.974;2022-11-04T17:40:00;9.50;99.90
19385;DHT22;9828;54.122;17.974;2022-11-04T17:45:22;9.40;99.90
19385;DHT22;9828;54.122;17.974;2022-11-04T17:50:43;9.40;99.90
19385;DHT22;9828;54.122;17.974;2022-11-04T17:56:06;9.50;99.90
19385;DHT22;9828;54.122;17.974;2022-11-04T18:01:34;9.50;99.90
19385;DHT22;9828;54.122;17.974;2022-11-04T18:06:56;9.50;99.90
19385;DHT22;9828;54.122;17.974;2022-11-04T18:12:21;9.50;99.90
19385;DHT22;9828;54.122;17.974;2022-11-04T18:17:58;9.40;99.90
19385;DHT22;9828;54.122;17.974;2022-11-04T18:23:19;9.40;99.90
19385;DHT22;9828;54.122;17.974;2022-11-04T18:28:42;9.40;99.90
19385;DHT22;9828;54.122;17.974;2022-11-04T18:34:06;9.40;99.90
19385;DHT22;9828;54.122;17.974;2022-11-04T18:39:28;9.40;99.90
19385;DHT22;9828;54.122;17.974;2022-11-04T18:44:49;9.30;99.90
19385;DHT22;9828;54.122;17.974;2022-11-04T18:50:10;9.30;99.90
19385;DHT22;9828;54.122;17.974;2022-11-04T18:55:32;9.30;99.90
19385;DHT22;9828;54.122;17.974;2022-11-04T19:00:54;9.30;99.90
19385;DHT22;9828;54.122;17.974;2022-11-04T19:06:17;9.30;99.90
19385;DHT22;9828;54.122;17.974;2022-11-04T19:11:39;9.40;99.90
19385;DHT22;9828;54.122;17.974;2022-11-04T19:17:02;9.40;99.90
19385;DHT22;9828;54.122;17.974;2022-11-04T19:22:23;9.40;99.90
19385;DHT22;9828;54.122;17.974;2022-11-04T19:27:46;9.40;99.90
19385;DHT22;9828;54.122;17.974;2022-11-04T19:33:15;9.40;99.90
19385;DHT22;9828;54.122;17.974;2022-11-04T19:38:37;9.40;99.90
19385;DHT22;9828;54.122;17.974;2022-11-04T19:44:00;9.40;99.90
19385;DHT22;9828;54.122;17.974;2022-11-04T19:49:22;9.40;99.90
19385;DHT22;9828;54.122;17.974;2022-11-04T19:54:44;9.40;99.90
19385;DHT22;9828;54.122;17.974;2022-11-04T20:00:06;9.40;99.90
19385;DHT22;9828;54.122;17.974;2022-11-04T20:05:38;9.40;99.90
19385;DHT22;9828;54.122;17.974;2022-11-04T20:11:04;9.40;99.90
19385;DHT22;9828;54.122;17.974;2022-11-04T20:16:28;9.40;99.90
19385;DHT22;9828;54.122;17.974;2022-11-04T20:21:50;9.30;99.90
19385;DHT22;9828;54.122;17.974;2022-11-04T20:27:11;9.40;99.90
19385;DHT22;9828;54.122;17.974;2022-11-04T20:32:35;9.40;99.90
19385;DHT22;9828;54.122;17.974;2022-11-04T20:37:57;9.40;99.90
19385;DHT22;9828;54.122;17.974;2022-11-04T20:43:19;9.40;99.90
19385;DHT22;9828;54.122;17.974;2022-11-04T20:48:40;9.40;99.90
19385;DHT22;9828;54.122;17.974;2022-11-04T20:54:04;9.30;99.90
19385;DHT22;9828;54.122;17.974;2022-11-04T20:59:26;9.30;99.90
19385;DHT22;9828;54.122;17.974;2022-11-04T21:04:52;9.30;99.90
19385;DHT22;9828;54.122;17.974;2022-11-04T21:10:15;9.30;99.90
19385;DHT22;9828;54.122;17.974;2022-11-04T21:15:37;9.30;99.90
19385;DHT22;9828;54.122;17.974;2022-11-04T21:21:16;9.30;99.90
19385;DHT22;9828;54.122;17.974;2022-11-04T21:26:37;9.30;99.90
19385;DHT22;9828;54.122;17.974;2022-11-04T21:31:58;9.30;99.90
19385;DHT22;9828;54.122;17.974;2022-11-04T21:37:20;9.20;99.90
19385;DHT22;9828;54.122;17.974;2022-11-04T21:42:41;9.20;99.90
19385;DHT22;9828;54.122;17.974;2022-11-04T21:48:02;9.20;99.90
19385;DHT22;9828;54.122;17.974;2022-11-04T21:53:23;9.20;99.90
19385;DHT22;9828;54.122;17.974;2022-11-04T21:58:45;9.20;99.90
19385;DHT22;9828;54.122;17.974;2022-11-04T22:04:06;9.20;99.90
19385;DHT22;9828;54.122;17.974;2022-11-04T22:09:28;9.20;99.90
19385;DHT22;9828;54.122;17.974;2022-11-04T22:14:49;9.20;99.90
19385;DHT22;9828;54.122;17.974;2022-11-04T22:20:11;9.20;99.90
19385;DHT22;9828;54.122;17.974;2022-11-04T22:25:32;9.20;99.90
19385;DHT22;9828;54.122;17.974;2022-11-04T22:30:53;9.20;99.90
19385;DHT22;9828;54.122;17.974;2022-11-04T22:36:14;9.30;99.90
19385;DHT22;9828;54.122;17.974;2022-11-04T22:41:35;9.20;99.90
19385;DHT22;9828;54.122;17.974;2022-11-04T22:46:58;9.20;99.90
19385;DHT22;9828;54.122;17.974;2022-11-04T22:52:19;9.20;99.90
19385;DHT22;9828;54.122;17.974;2022-11-04T22:57:40;9.20;99.90
19385;DHT22;9828;54.122;17.974;2022-11-04T23:03:01;9.20;99.90
19385;DHT22;9828;54.122;17.974;2022-11-04T23:08:24;9.20;99.90
19385;DHT22;9828;54.122;17.974;2022-11-04T23:13:54;9.20;99.90
19385;DHT22;9828;54.122;17.974;2022-11-04T23:19:37;9.10;99.90
19385;DHT22;9828;54.122;17.974;2022-11-04T23:24:59;9.00;99.90
19385;DHT22;9828;54.122;17.974;2022-11-04T23:30:28;9.00;99.90
19385;DHT22;9828;54.122;17.974;2022-11-04T23:35:50;8.90;99.90
19385;DHT22;9828;54.122;17.974;2022-11-04T23:41:30;8.90;99.90
19385;DHT22;9828;54.122;17.974;2022-11-04T23:47:11;8.90;99.90
19385;DHT22;9828;54.122;17.974;2022-11-04T23:52:50;8.80;99.90
19385;DHT22;9828;54.122;17.974;2022-11-04T23:58:30;8.80;99.90
